Accueil
METAR-TAF:

METAR-TAF

Aéroports :

Aéroport Sandro-Pertini de Turin Caselle

Turin, Italie

latitude: 45-13N, longitude: 007-39E, altitude: 301 m

Observation

Le bulletin a été fait il y a 14 minutes, à 05:20 UTC
Vent 4 kt de nord-est
Température 18°C
Humidité 73%
Pression 1019 hPa
Visibilité 10 km ou plus
Nuages épars à une hauteur de 6000 ft

METAR: LIMF 240520Z 05004KT 9999 SCT060 18/13 Q1019

Heure: 07:34 (05:34 UTC)

Prévision

Le bulletin a été fait il y a 6 heures et 34 minutes, à 23:00 UTC
Prévision valable du 24 à 00 UTC au 24 à 24 UTC
Vent 5 kt de direction variable
Visibilité 10 km ou plus
Nuages épars à une hauteur de 6000 ft

TAF: LIMF 232300Z 2400/2424 VRB05KT 9999 SCT060

Observations et prévisions météorologiques de plus de 4000 aéroports (messages METAR et TAF).

Les stations disponibles sont représentées par des disques jaunes et rouges sur la carte.

Passer la souris dessus pour voir le nom de la station.

Cliquer dessus pour voir les observations et prévisions météorologiques.

Pour changer de carte: cliquez sur les boutons verts avec une croix noire pour zoomer, sur le bouton vert avec un tiret pour effectuer un zoom arrière, ou sur les flèches vertes pour les cartes adjacentes.


METAR-TAF: